sensor_id;sensor_type;location;lat;lon;timestamp;P1;P2;P0
55686;PMS5003;41911;52.362;4.978;2023-03-01T00:01:25;29.0;29.0;
55686;PMS5003;41911;52.362;4.978;2023-03-01T00:01:58;39.0;36.0;
55686;PMS5003;41911;52.362;4.978;2023-03-01T00:02:29;40.0;36.0;
55686;PMS5003;41911;52.362;4.978;2023-03-01T00:02:59;43.0;41.0;
55686;PMS5003;41911;52.362;4.978;2023-03-01T00:03:32;41.0;40.0;
55686;PMS5003;41911;52.362;4.978;2023-03-01T00:04:04;38.0;36.0;
55686;PMS5003;41911;52.362;4.978;2023-03-01T00:04:36;39.0;36.0;
55686;PMS5003;41911;52.362;4.978;2023-03-01T00:05:07;41.0;39.0;
55686;PMS5003;41911;52.362;4.978;2023-03-01T00:05:44;40.0;38.0;
55686;PMS5003;41911;52.362;4.978;2023-03-01T00:06:15;45.0;42.0;
55686;PMS5003;41911;52.362;4.978;2023-03-01T00:06:47;43.0;41.0;
55686;PMS5003;41911;52.362;4.978;2023-03-01T00:07:18;37.0;37.0;
55686;PMS5003;41911;52.362;4.978;2023-03-01T00:07:51;42.0;36.0;
55686;PMS5003;41911;52.362;4.978;2023-03-01T00:08:23;41.0;39.0;
55686;PMS5003;41911;52.362;4.978;2023-03-01T00:08:54;45.0;42.0;
55686;PMS5003;41911;52.362;4.978;2023-03-01T00:09:25;44.0;43.0;
55686;PMS5003;41911;52.362;4.978;2023-03-01T00:09:56;39.0;35.0;
55686;PMS5003;41911;52.362;4.978;2023-03-01T00:10:27;41.0;37.0;
55686;PMS5003;41911;52.362;4.978;2023-03-01T00:11:00;42.0;40.0;
55686;PMS5003;41911;52.362;4.978;2023-03-01T00:11:32;40.0;40.0;
55686;PMS5003;41911;52.362;4.978;2023-03-01T00:12:04;40.0;34.0;
55686;PMS5003;41911;52.362;4.978;2023-03-01T00:12:36;39.0;38.0;
55686;PMS5003;41911;52.362;4.978;2023-03-01T00:13:07;37.0;35.0;
55686;PMS5003;41911;52.362;4.978;2023-03-01T00:13:38;34.0;33.0;
55686;PMS5003;41911;52.362;4.978;2023-03-01T00:14:10;34.0;33.0;
55686;PMS5003;41911;52.362;4.978;2023-03-01T00:14:42;32.0;32.0;
55686;PMS5003;41911;52.362;4.978;2023-03-01T00:15:12;35.0;33.0;
55686;PMS5003;41911;52.362;4.978;2023-03-01T00:15:43;38.0;36.0;
55686;PMS5003;41911;52.362;4.978;2023-03-01T00:16:15;43.0;40.0;
55686;PMS5003;41911;52.362;4.978;2023-03-01T00:16:48;47.0;43.0;
55686;PMS5003;41911;52.362;4.978;2023-03-01T00:17:19;41.0;34.0;
55686;PMS5003;41911;52.362;4.978;2023-03-01T00:17:50;39.0;37.0;
55686;PMS5003;41911;52.362;4.978;2023-03-01T00:18:20;35.0;35.0;
55686;PMS5003;41911;52.362;4.978;2023-03-01T00:18:51;35.0;34.0;
55686;PMS5003;41911;52.362;4.978;2023-03-01T00:19:24;39.0;38.0;
55686;PMS5003;41911;52.362;4.978;2023-03-01T00:19:55;35.0;35.0;
55686;PMS5003;41911;52.362;4.978;2023-03-01T00:20:25;39.0;39.0;
55686;PMS5003;41911;52.362;4.978;2023-03-01T00:20:56;43.0;42.0;
55686;PMS5003;41911;52.362;4.978;2023-03-01T00:21:28;42.0;41.0;
55686;PMS5003;41911;52.362;4.978;2023-03-01T00:22:00;33.0;32.0;
55686;PMS5003;41911;52.362;4.978;2023-03-01T00:22:31;39.0;37.0;
55686;PMS5003;41911;52.362;4.978;2023-03-01T00:23:01;43.0;39.0;
55686;PMS5003;41911;52.362;4.978;2023-03-01T00:23:33;49.0;44.0;
55686;PMS5003;41911;52.362;4.978;2023-03-01T00:24:05;39.0;38.0;
55686;PMS5003;41911;52.362;4.978;2023-03-01T00:24:36;39.0;38.0;
55686;PMS5003;41911;52.362;4.978;2023-03-01T00:25:07;42.0;42.0;
55686;PMS5003;41911;52.362;4.978;2023-03-01T00:25:41;39.0;37.0;
55686;PMS5003;41911;52.362;4.978;2023-03-01T00:26:13;45.0;44.0;
55686;PMS5003;41911;52.362;4.978;2023-03-01T00:26:44;38.0;37.0;
55686;PMS5003;41911;52.362;4.978;2023-03-01T00:27:15;48.0;45.0;
55686;PMS5003;41911;52.362;4.978;2023-03-01T00:27:46;43.0;39.0;
55686;PMS5003;41911;52.362;4.978;2023-03-01T00:28:17;42.0;40.0;
55686;PMS5003;41911;52.362;4.978;2023-03-01T00:28:49;44.0;43.0;
55686;PMS5003;41911;52.362;4.978;2023-03-01T00:29:21;46.0;45.0;
55686;PMS5003;41911;52.362;4.978;2023-03-01T00:29:52;47.0;45.0;
55686;PMS5003;41911;52.362;4.978;2023-03-01T00:30:23;38.0;38.0;
55686;PMS5003;41911;52.362;4.978;2023-03-01T00:30:54;44.0;42.0;
55686;PMS5003;41911;52.362;4.978;2023-03-01T00:31:26;47.0;44.0;
55686;PMS5003;41911;52.362;4.978;2023-03-01T00:31:58;43.0;40.0;
55686;PMS5003;41911;52.362;4.978;2023-03-01T00:32:29;46.0;42.0;
55686;PMS5003;41911;52.362;4.978;2023-03-01T00:33:00;37.0;37.0;
55686;PMS5003;41911;52.362;4.978;2023-03-01T00:33:31;45.0;44.0;
55686;PMS5003;41911;52.362;4.978;2023-03-01T00:34:04;38.0;37.0;
55686;PMS5003;41911;52.362;4.978;2023-03-01T00:34:35;44.0;40.0;
55686;PMS5003;41911;52.362;4.978;2023-03-01T00:35:07;39.0;36.0;
55686;PMS5003;41911;52.362;4.978;2023-03-01T00:35:38;45.0;42.0;
55686;PMS5003;41911;52.362;4.978;2023-03-01T00:36:10;43.0;42.0;
55686;PMS5003;41911;52.362;4.978;2023-03-01T00:36:42;40.0;38.0;
55686;PMS5003;41911;52.362;4.978;2023-03-01T00:37:13;51.0;43.0;
55686;PMS5003;41911;52.362;4.978;2023-03-01T00:37:44;42.0;40.0;
55686;PMS5003;41911;52.362;4.978;2023-03-01T00:38:15;43.0;42.0;
55686;PMS5003;41911;52.362;4.978;2023-03-01T00:38:46;40.0;37.0;
55686;PMS5003;41911;52.362;4.978;2023-03-01T00:39:17;42.0;39.0;
55686;PMS5003;41911;52.362;4.978;2023-03-01T00:39:48;43.0;40.0;
55686;PMS5003;41911;52.362;4.978;2023-03-01T00:40:20;40.0;38.0;
55686;PMS5003;41911;52.362;4.978;2023-03-01T00:40:50;37.0;36.0;
55686;PMS5003;41911;52.362;4.978;2023-03-01T00:41:22;38.0;35.0;
55686;PMS5003;41911;52.362;4.978;2023-03-01T00:41:53;41.0;41.0;
55686;PMS5003;41911;52.362;4.978;2023-03-01T00:42:24;41.0;38.0;
55686;PMS5003;41911;52.362;4.978;2023-03-01T00:42:55;42.0;39.0;
55686;PMS5003;41911;52.362;4.978;2023-03-01T00:43:26;47.0;41.0;
55686;PMS5003;41911;52.362;4.978;2023-03-01T00:43:57;38.0;36.0;
55686;PMS5003;41911;52.362;4.978;2023-03-01T00:44:28;39.0;39.0;
55686;PMS5003;41911;52.362;4.978;2023-03-01T00:44:59;41.0;35.0;
55686;PMS5003;41911;52.362;4.978;2023-03-01T00:45:30;38.0;37.0;
55686;PMS5003;41911;52.362;4.978;2023-03-01T00:46:00;40.0;40.0;
55686;PMS5003;41911;52.362;4.978;2023-03-01T00:46:32;38.0;36.0;
55686;PMS5003;41911;52.362;4.978;2023-03-01T00:47:03;37.0;34.0;
55686;PMS5003;41911;52.362;4.978;2023-03-01T00:47:33;39.0;38.0;
55686;PMS5003;41911;52.362;4.978;2023-03-01T00:48:05;37.0;35.0;
55686;PMS5003;41911;52.362;4.978;2023-03-01T00:48:36;44.0;41.0;
55686;PMS5003;41911;52.362;4.978;2023-03-01T00:49:07;41.0;40.0;
55686;PMS5003;41911;52.362;4.978;2023-03-01T00:49:38;40.0;39.0;
55686;PMS5003;41911;52.362;4.978;2023-03-01T00:50:10;37.0;35.0;
55686;PMS5003;41911;52.362;4.978;2023-03-01T00:50:42;43.0;38.0;
55686;PMS5003;41911;52.362;4.978;2023-03-01T00:51:13;42.0;38.0;
55686;PMS5003;41911;52.362;4.978;2023-03-01T00:51:45;35.0;33.0;
55686;PMS5003;41911;52.362;4.978;2023-03-01T00:52:16;41.0;40.0;
55686;PMS5003;41911;52.362;4.978;2023-03-01T00:52:50;41.0;38.0;
55686;PMS5003;41911;52.362;4.978;2023-03-01T00:53:23;35.0;34.0;
55686;PMS5003;41911;52.362;4.978;2023-03-01T00:53:55;36.0;33.0;
55686;PMS5003;41911;52.362;4.978;2023-03-01T00:54:27;40.0;38.0;
55686;PMS5003;41911;52.362;4.978;2023-03-01T00:54:58;36.0;35.0;
55686;PMS5003;41911;52.362;4.978;2023-03-01T00:55:29;35.0;32.0;
55686;PMS5003;41911;52.362;4.978;2023-03-01T00:56:00;36.0;35.0;
55686;PMS5003;41911;52.362;4.978;2023-03-01T00:56:32;38.0;36.0;
55686;PMS5003;41911;52.362;4.978;2023-03-01T00:57:04;41.0;40.0;
55686;PMS5003;41911;52.362;4.978;2023-03-01T00:57:35;39.0;38.0;
55686;PMS5003;41911;52.362;4.978;2023-03-01T00:58:06;39.0;37.0;
55686;PMS5003;41911;52.362;4.978;2023-03-01T00:58:37;42.0;39.0;
55686;PMS5003;41911;52.362;4.978;2023-03-01T00:59:08;34.0;33.0;
55686;PMS5003;41911;52.362;4.978;2023-03-01T00:59:39;39.0;36.0;
55686;PMS5003;41911;52.362;4.978;2023-03-01T01:00:10;43.0;41.0;
55686;PMS5003;41911;52.362;4.978;2023-03-01T01:00:42;40.0;35.0;
55686;PMS5003;41911;52.362;4.978;2023-03-01T01:01:14;41.0;41.0;
55686;PMS5003;41911;52.362;4.978;2023-03-01T01:01:48;44.0;39.0;
55686;PMS5003;41911;52.362;4.978;2023-03-01T01:02:19;39.0;39.0;
55686;PMS5003;41911;52.362;4.978;2023-03-01T01:02:50;36.0;34.0;
55686;PMS5003;41911;52.362;4.978;2023-03-01T01:03:22;36.0;36.0;
55686;PMS5003;41911;52.362;4.978;2023-03-01T01:03:54;37.0;37.0;
55686;PMS5003;41911;52.362;4.978;2023-03-01T01:04:27;37.0;36.0;
55686;PMS5003;41911;52.362;4.978;2023-03-01T01:04:58;46.0;43.0;
55686;PMS5003;41911;52.362;4.978;2023-03-01T01:05:29;35.0;33.0;
55686;PMS5003;41911;52.362;4.978;2023-03-01T01:06:00;35.0;33.0;
55686;PMS5003;41911;52.362;4.978;2023-03-01T01:06:32;40.0;39.0;
55686;PMS5003;41911;52.362;4.978;2023-03-01T01:07:04;40.0;38.0;
55686;PMS5003;41911;52.362;4.978;2023-03-01T01:07:36;40.0;38.0;
55686;PMS5003;41911;52.362;4.978;2023-03-01T01:08:07;39.0;38.0;
55686;PMS5003;41911;52.362;4.978;2023-03-01T01:08:38;37.0;36.0;
55686;PMS5003;41911;52.362;4.978;2023-03-01T01:09:10;42.0;40.0;
55686;PMS5003;41911;52.362;4.978;2023-03-01T01:09:42;42.0;39.0;
55686;PMS5003;41911;52.362;4.978;2023-03-01T01:10:13;35.0;35.0;
55686;PMS5003;41911;52.362;4.978;2023-03-01T01:10:44;39.0;37.0;
55686;PMS5003;41911;52.362;4.978;2023-03-01T01:11:16;45.0;40.0;
55686;PMS5003;41911;52.362;4.978;2023-03-01T01:11:48;37.0;34.0;
55686;PMS5003;41911;52.362;4.978;2023-03-01T01:12:20;45.0;44.0;
55686;PMS5003;41911;52.362;4.978;2023-03-01T01:12:52;43.0;43.0;
55686;PMS5003;41911;52.362;4.978;2023-03-01T01:13:23;49.0;48.0;
55686;PMS5003;41911;52.362;4.978;2023-03-01T01:13:54;42.0;41.0;
55686;PMS5003;41911;52.362;4.978;2023-03-01T01:14:26;45.0;42.0;
55686;PMS5003;41911;52.362;4.978;2023-03-01T01:14:57;51.0;46.0;
55686;PMS5003;41911;52.362;4.978;2023-03-01T01:15:28;50.0;47.0;
55686;PMS5003;41911;52.362;4.978;2023-03-01T01:16:00;45.0;43.0;
55686;PMS5003;41911;52.362;4.978;2023-03-01T01:16:31;51.0;49.0;
55686;PMS5003;41911;52.362;4.978;2023-03-01T01:17:03;53.0;50.0;
55686;PMS5003;41911;52.362;4.978;2023-03-01T01:17:34;46.0;45.0;
55686;PMS5003;41911;52.362;4.978;2023-03-01T01:18:05;49.0;45.0;
55686;PMS5003;41911;52.362;4.978;2023-03-01T01:18:37;52.0;51.0;
55686;PMS5003;41911;52.362;4.978;2023-03-01T01:19:09;51.0;48.0;
55686;PMS5003;41911;52.362;4.978;2023-03-01T01:19:41;53.0;51.0;
55686;PMS5003;41911;52.362;4.978;2023-03-01T01:20:13;50.0;48.0;
55686;PMS5003;41911;52.362;4.978;2023-03-01T01:20:44;47.0;45.0;
55686;PMS5003;41911;52.362;4.978;2023-03-01T01:21:15;53.0;46.0;
55686;PMS5003;41911;52.362;4.978;2023-03-01T01:21:48;47.0;46.0;
55686;PMS5003;41911;52.362;4.978;2023-03-01T01:22:20;52.0;51.0;
55686;PMS5003;41911;52.362;4.978;2023-03-01T01:22:51;46.0;43.0;
55686;PMS5003;41911;52.362;4.978;2023-03-01T01:23:22;52.0;48.0;
55686;PMS5003;41911;52.362;4.978;2023-03-01T01:23:53;49.0;46.0;
55686;PMS5003;41911;52.362;4.978;2023-03-01T01:24:25;42.0;39.0;
55686;PMS5003;41911;52.362;4.978;2023-03-01T01:24:56;47.0;45.0;
55686;PMS5003;41911;52.362;4.978;2023-03-01T01:25:27;45.0;45.0;
55686;PMS5003;41911;52.362;4.978;2023-03-01T01:26:03;46.0;42.0;
55686;PMS5003;41911;52.362;4.978;2023-03-01T01:26:35;44.0;42.0;
55686;PMS5003;41911;52.362;4.978;2023-03-01T01:27:06;42.0;41.0;
55686;PMS5003;41911;52.362;4.978;2023-03-01T01:27:37;43.0;42.0;
55686;PMS5003;41911;52.362;4.978;2023-03-01T01:28:08;39.0;38.0;
55686;PMS5003;41911;52.362;4.978;2023-03-01T01:28:39;38.0;37.0;
55686;PMS5003;41911;52.362;4.978;2023-03-01T01:29:11;47.0;46.0;
55686;PMS5003;41911;52.362;4.978;2023-03-01T01:29:42;43.0;42.0;
55686;PMS5003;41911;52.362;4.978;2023-03-01T01:30:13;42.0;41.0;
55686;PMS5003;41911;52.362;4.978;2023-03-01T01:30:44;47.0;45.0;
55686;PMS5003;41911;52.362;4.978;2023-03-01T01:31:15;42.0;41.0;
55686;PMS5003;41911;52.362;4.978;2023-03-01T01:31:47;50.0;49.0;
55686;PMS5003;41911;52.362;4.978;2023-03-01T01:32:18;39.0;38.0;
55686;PMS5003;41911;52.362;4.978;2023-03-01T01:32:49;43.0;42.0;
55686;PMS5003;41911;52.362;4.978;2023-03-01T01:33:21;46.0;44.0;
55686;PMS5003;41911;52.362;4.978;2023-03-01T01:33:52;47.0;45.0;
55686;PMS5003;41911;52.362;4.978;2023-03-01T01:34:28;50.0;49.0;
55686;PMS5003;41911;52.362;4.978;2023-03-01T01:34:59;42.0;41.0;
55686;PMS5003;41911;52.362;4.978;2023-03-01T01:35:30;42.0;41.0;
55686;PMS5003;41911;52.362;4.978;2023-03-01T01:36:01;43.0;41.0;
55686;PMS5003;41911;52.362;4.978;2023-03-01T01:36:32;45.0;42.0;
55686;PMS5003;41911;52.362;4.978;2023-03-01T01:37:05;47.0;39.0;
55686;PMS5003;41911;52.362;4.978;2023-03-01T01:37:36;44.0;42.0;
55686;PMS5003;41911;52.362;4.978;2023-03-01T01:38:07;42.0;38.0;
55686;PMS5003;41911;52.362;4.978;2023-03-01T01:38:38;42.0;40.0;
55686;PMS5003;41911;52.362;4.978;2023-03-01T01:39:09;45.0;39.0;
55686;PMS5003;41911;52.362;4.978;2023-03-01T01:39:41;43.0;40.0;
55686;PMS5003;41911;52.362;4.978;2023-03-01T01:40:12;40.0;37.0;
55686;PMS5003;41911;52.362;4.978;2023-03-01T01:40:45;43.0;40.0;
55686;PMS5003;41911;52.362;4.978;2023-03-01T01:41:17;46.0;43.0;
55686;PMS5003;41911;52.362;4.978;2023-03-01T01:41:49;38.0;37.0;
55686;PMS5003;41911;52.362;4.978;2023-03-01T01:42:20;38.0;38.0;
55686;PMS5003;41911;52.362;4.978;2023-03-01T01:42:51;40.0;39.0;
55686;PMS5003;41911;52.362;4.978;2023-03-01T01:43:23;40.0;38.0;
55686;PMS5003;41911;52.362;4.978;2023-03-01T01:44:28;47.0;44.0;
55686;PMS5003;41911;52.362;4.978;2023-03-01T01:45:33;47.0;44.0;
55686;PMS5003;41911;52.362;4.978;2023-03-01T01:46:06;43.0;40.0;
55686;PMS5003;41911;52.362;4.978;2023-03-01T01:46:47;43.0;39.0;
55686;PMS5003;41911;52.362;4.978;2023-03-01T01:47:20;41.0;38.0;
55686;PMS5003;41911;52.362;4.978;2023-03-01T01:47:54;45.0;44.0;
55686;PMS5003;41911;52.362;4.978;2023-03-01T01:48:29;50.0;47.0;
55686;PMS5003;41911;52.362;4.978;2023-03-01T01:49:10;46.0;44.0;
55686;PMS5003;41911;52.362;4.978;2023-03-01T01:49:51;42.0;38.0;
55686;PMS5003;41911;52.362;4.978;2023-03-01T01:50:25;49.0;47.0;
55686;PMS5003;41911;52.362;4.978;2023-03-01T01:50:58;46.0;44.0;
55686;PMS5003;41911;52.362;4.978;2023-03-01T01:51:31;41.0;39.0;
55686;PMS5003;41911;52.362;4.978;2023-03-01T01:52:09;46.0;45.0;
55686;PMS5003;41911;52.362;4.978;2023-03-01T01:52:42;43.0;42.0;
55686;PMS5003;41911;52.362;4.978;2023-03-01T01:53:15;42.0;41.0;
55686;PMS5003;41911;52.362;4.978;2023-03-01T01:53:49;47.0;45.0;
55686;PMS5003;41911;52.362;4.978;2023-03-01T01:54:25;47.0;44.0;
55686;PMS5003;41911;52.362;4.978;2023-03-01T01:55:02;47.0;46.0;
55686;PMS5003;41911;52.362;4.978;2023-03-01T01:55:38;46.0;43.0;
55686;PMS5003;41911;52.362;4.978;2023-03-01T01:56:13;50.0;47.0;
55686;PMS5003;41911;52.362;4.978;2023-03-01T01:56:47;46.0;45.0;
55686;PMS5003;41911;52.362;4.978;2023-03-01T01:57:21;42.0;42.0;
55686;PMS5003;41911;52.362;4.978;2023-03-01T01:57:56;38.0;38.0;
55686;PMS5003;41911;52.362;4.978;2023-03-01T01:58:30;40.0;40.0;
55686;PMS5003;41911;52.362;4.978;2023-03-01T01:59:01;39.0;37.0;
55686;PMS5003;41911;52.362;4.978;2023-03-01T01:59:32;49.0;46.0;
55686;PMS5003;41911;52.362;4.978;2023-03-01T02:00:05;43.0;42.0;
55686;PMS5003;41911;52.362;4.978;2023-03-01T02:00:38;39.0;38.0;
55686;PMS5003;41911;52.362;4.978;2023-03-01T02:01:09;48.0;45.0;
55686;PMS5003;41911;52.362;4.978;2023-03-01T02:01:41;48.0;46.0;
55686;PMS5003;41911;52.362;4.978;2023-03-01T02:02:13;45.0;43.0;
55686;PMS5003;41911;52.362;4.978;2023-03-01T02:02:45;49.0;47.0;
55686;PMS5003;41911;52.362;4.978;2023-03-01T02:03:21;43.0;42.0;
55686;PMS5003;41911;52.362;4.978;2023-03-01T02:03:55;47.0;45.0;
55686;PMS5003;41911;52.362;4.978;2023-03-01T02:04:26;48.0;45.0;
55686;PMS5003;41911;52.362;4.978;2023-03-01T02:05:05;47.0;43.0;
55686;PMS5003;41911;52.362;4.978;2023-03-01T02:05:45;46.0;45.0;
55686;PMS5003;41911;52.362;4.978;2023-03-01T02:06:24;46.0;44.0;
55686;PMS5003;41911;52.362;4.978;2023-03-01T02:07:00;43.0;42.0;
55686;PMS5003;41911;52.362;4.978;2023-03-01T02:07:40;51.0;49.0;
55686;PMS5003;41911;52.362;4.978;2023-03-01T02:08:13;43.0;41.0;
55686;PMS5003;41911;52.362;4.978;2023-03-01T02:08:46;43.0;42.0;
55686;PMS5003;41911;52.362;4.978;2023-03-01T02:09:20;48.0;46.0;
55686;PMS5003;41911;52.362;4.978;2023-03-01T02:09:53;43.0;43.0;
55686;PMS5003;41911;52.362;4.978;2023-03-01T02:10:24;46.0;43.0;
55686;PMS5003;41911;52.362;4.978;2023-03-01T02:10:58;44.0;43.0;
55686;PMS5003;41911;52.362;4.978;2023-03-01T02:11:31;45.0;44.0;
55686;PMS5003;41911;52.362;4.978;2023-03-01T02:12:03;48.0;46.0;
55686;PMS5003;41911;52.362;4.978;2023-03-01T02:12:35;45.0;43.0;
55686;PMS5003;41911;52.362;4.978;2023-03-01T02:13:08;48.0;48.0;
55686;PMS5003;41911;52.362;4.978;2023-03-01T02:13:39;46.0;44.0;
55686;PMS5003;41911;52.362;4.978;2023-03-01T02:14:11;49.0;48.0;
55686;PMS5003;41911;52.362;4.978;2023-03-01T02:14:42;47.0;47.0;
55686;PMS5003;41911;52.362;4.978;2023-03-01T02:15:14;51.0;49.0;
55686;PMS5003;41911;52.362;4.978;2023-03-01T02:15:45;48.0;48.0;
55686;PMS5003;41911;52.362;4.978;2023-03-01T02:16:16;46.0;44.0;
55686;PMS5003;41911;52.362;4.978;2023-03-01T02:16:48;48.0;46.0;
55686;PMS5003;41911;52.362;4.978;2023-03-01T02:17:19;42.0;41.0;
55686;PMS5003;41911;52.362;4.978;2023-03-01T02:17:52;43.0;42.0;
55686;PMS5003;41911;52.362;4.978;2023-03-01T02:18:24;52.0;49.0;
55686;PMS5003;41911;52.362;4.978;2023-03-01T02:18:56;46.0;44.0;
55686;PMS5003;41911;52.362;4.978;2023-03-01T02:19:31;46.0;45.0;
55686;PMS5003;41911;52.362;4.978;2023-03-01T02:20:16;45.0;43.0;
55686;PMS5003;41911;52.362;4.978;2023-03-01T02:20:59;51.0;46.0;
55686;PMS5003;41911;52.362;4.978;2023-03-01T02:21:43;51.0;48.0;
55686;PMS5003;41911;52.362;4.978;2023-03-01T02:22:24;51.0;49.0;
55686;PMS5003;41911;52.362;4.978;2023-03-01T02:22:58;51.0;48.0;
55686;PMS5003;41911;52.362;4.978;2023-03-01T02:23:30;49.0;48.0;
55686;PMS5003;41911;52.362;4.978;2023-03-01T02:24:03;46.0;42.0;
55686;PMS5003;41911;52.362;4.978;2023-03-01T02:24:42;58.0;54.0;
55686;PMS5003;41911;52.362;4.978;2023-03-01T02:25:25;45.0;42.0;
55686;PMS5003;41911;52.362;4.978;2023-03-01T02:26:01;46.0;45.0;
55686;PMS5003;41911;52.362;4.978;2023-03-01T02:26:38;51.0;47.0;
55686;PMS5003;41911;52.362;4.978;2023-03-01T02:27:17;51.0;50.0;
55686;PMS5003;41911;52.362;4.978;2023-03-01T02:27:58;54.0;51.0;
55686;PMS5003;41911;52.362;4.978;2023-03-01T02:28:38;51.0;48.0;
55686;PMS5003;41911;52.362;4.978;2023-03-01T02:29:12;49.0;44.0;
55686;PMS5003;41911;52.362;4.978;2023-03-01T02:29:43;49.0;46.0;
55686;PMS5003;41911;52.362;4.978;2023-03-01T02:30:15;49.0;44.0;
55686;PMS5003;41911;52.362;4.978;2023-03-01T02:30:47;46.0;45.0;
55686;PMS5003;41911;52.362;4.978;2023-03-01T02:31:20;48.0;47.0;
55686;PMS5003;41911;52.362;4.978;2023-03-01T02:31:52;43.0;42.0;
55686;PMS5003;41911;52.362;4.978;2023-03-01T02:32:26;47.0;44.0;
55686;PMS5003;41911;52.362;4.978;2023-03-01T02:32:57;44.0;44.0;
55686;PMS5003;41911;52.362;4.978;2023-03-01T02:33:31;49.0;47.0;
55686;PMS5003;41911;52.362;4.978;2023-03-01T02:34:03;48.0;47.0;
55686;PMS5003;41911;52.362;4.978;2023-03-01T02:34:36;46.0;42.0;
55686;PMS5003;41911;52.362;4.978;2023-03-01T02:35:09;49.0;48.0;
55686;PMS5003;41911;52.362;4.978;2023-03-01T02:35:44;47.0;44.0;
55686;PMS5003;41911;52.362;4.978;2023-03-01T02:36:16;43.0;43.0;
55686;PMS5003;41911;52.362;4.978;2023-03-01T02:36:51;47.0;46.0;
55686;PMS5003;41911;52.362;4.978;2023-03-01T02:37:27;47.0;47.0;
55686;PMS5003;41911;52.362;4.978;2023-03-01T02:37:58;50.0;49.0;
55686;PMS5003;41911;52.362;4.978;2023-03-01T02:38:31;45.0;44.0;
55686;PMS5003;41911;52.362;4.978;2023-03-01T02:39:03;51.0;48.0;
55686;PMS5003;41911;52.362;4.978;2023-03-01T02:39:37;47.0;44.0;
55686;PMS5003;41911;52.362;4.978;2023-03-01T02:40:12;48.0;43.0;
55686;PMS5003;41911;52.362;4.978;2023-03-01T02:40:46;50.0;48.0;
55686;PMS5003;41911;52.362;4.978;2023-03-01T02:41:20;48.0;46.0;
55686;PMS5003;41911;52.362;4.978;2023-03-01T02:41:54;52.0;48.0;
55686;PMS5003;41911;52.362;4.978;2023-03-01T02:42:29;51.0;48.0;
55686;PMS5003;41911;52.362;4.978;2023-03-01T02:43:04;47.0;46.0;
55686;PMS5003;41911;52.362;4.978;2023-03-01T02:43:40;50.0;50.0;
55686;PMS5003;41911;52.362;4.978;2023-03-01T02:44:12;52.0;42.0;
55686;PMS5003;41911;52.362;4.978;2023-03-01T02:44:43;50.0;47.0;
55686;PMS5003;41911;52.362;4.978;2023-03-01T02:45:15;45.0;44.0;
55686;PMS5003;41911;52.362;4.978;2023-03-01T02:45:48;45.0;45.0;
55686;PMS5003;41911;52.362;4.978;2023-03-01T02:46:21;44.0;40.0;
55686;PMS5003;41911;52.362;4.978;2023-03-01T02:46:54;47.0;45.0;
55686;PMS5003;41911;52.362;4.978;2023-03-01T02:47:27;44.0;43.0;
55686;PMS5003;41911;52.362;4.978;2023-03-01T02:47:57;52.0;51.0;
55686;PMS5003;41911;52.362;4.978;2023-03-01T02:48:39;43.0;41.0;
55686;PMS5003;41911;52.362;4.978;2023-03-01T02:49:20;46.0;45.0;
55686;PMS5003;41911;52.362;4.978;2023-03-01T02:49:53;47.0;45.0;
55686;PMS5003;41911;52.362;4.978;2023-03-01T02:50:33;52.0;49.0;
55686;PMS5003;41911;52.362;4.978;2023-03-01T02:51:25;49.0;46.0;
55686;PMS5003;41911;52.362;4.978;2023-03-01T02:52:46;45.0;44.0;
55686;PMS5003;41911;52.362;4.978;2023-03-01T02:53:23;45.0;43.0;
55686;PMS5003;41911;52.362;4.978;2023-03-01T02:54:08;45.0;43.0;
55686;PMS5003;41911;52.362;4.978;2023-03-01T02:54:48;43.0;42.0;
55686;PMS5003;41911;52.362;4.978;2023-03-01T02:55:22;46.0;42.0;
55686;PMS5003;41911;52.362;4.978;2023-03-01T02:55:53;41.0;41.0;
55686;PMS5003;41911;52.362;4.978;2023-03-01T02:56:24;43.0;41.0;
55686;PMS5003;41911;52.362;4.978;2023-03-01T02:56:56;41.0;39.0;
55686;PMS5003;41911;52.362;4.978;2023-03-01T02:57:28;47.0;46.0;
55686;PMS5003;41911;52.362;4.978;2023-03-01T02:58:02;45.0;44.0;
55686;PMS5003;41911;52.362;4.978;2023-03-01T02:58:34;49.0;46.0;
55686;PMS5003;41911;52.362;4.978;2023-03-01T02:59:06;46.0;45.0;
55686;PMS5003;41911;52.362;4.978;2023-03-01T02:59:38;50.0;48.0;
55686;PMS5003;41911;52.362;4.978;2023-03-01T03:00:13;45.0;45.0;
55686;PMS5003;41911;52.362;4.978;2023-03-01T03:00:47;49.0;48.0;
55686;PMS5003;41911;52.362;4.978;2023-03-01T03:01:18;48.0;45.0;
55686;PMS5003;41911;52.362;4.978;2023-03-01T03:01:50;45.0;45.0;
55686;PMS5003;41911;52.362;4.978;2023-03-01T03:02:22;46.0;44.0;
55686;PMS5003;41911;52.362;4.978;2023-03-01T03:02:55;47.0;43.0;
55686;PMS5003;41911;52.362;4.978;2023-03-01T03:03:26;54.0;51.0;
55686;PMS5003;41911;52.362;4.978;2023-03-01T03:03:57;49.0;49.0;
55686;PMS5003;41911;52.362;4.978;2023-03-01T03:04:30;46.0;43.0;
55686;PMS5003;41911;52.362;4.978;2023-03-01T03:05:02;48.0;46.0;
55686;PMS5003;41911;52.362;4.978;2023-03-01T03:05:35;49.0;48.0;
55686;PMS5003;41911;52.362;4.978;2023-03-01T03:06:06;44.0;42.0;
55686;PMS5003;41911;52.362;4.978;2023-03-01T03:06:38;51.0;48.0;
55686;PMS5003;41911;52.362;4.978;2023-03-01T03:07:09;46.0;44.0;
55686;PMS5003;41911;52.362;4.978;2023-03-01T03:07:40;48.0;47.0;
55686;PMS5003;41911;52.362;4.978;2023-03-01T03:08:14;53.0;51.0;
55686;PMS5003;41911;52.362;4.978;2023-03-01T03:08:45;48.0;44.0;
55686;PMS5003;41911;52.362;4.978;2023-03-01T03:09:16;48.0;47.0;
55686;PMS5003;41911;52.362;4.978;2023-03-01T03:09:48;45.0;43.0;
55686;PMS5003;41911;52.362;4.978;2023-03-01T03:10:20;48.0;46.0;
55686;PMS5003;41911;52.362;4.978;2023-03-01T03:10:53;49.0;47.0;
55686;PMS5003;41911;52.362;4.978;2023-03-01T03:11:24;53.0;50.0;
55686;PMS5003;41911;52.362;4.978;2023-03-01T03:11:56;41.0;39.0;
55686;PMS5003;41911;52.362;4.978;2023-03-01T03:12:27;48.0;45.0;
55686;PMS5003;41911;52.362;4.978;2023-03-01T03:12:58;47.0;46.0;
55686;PMS5003;41911;52.362;4.978;2023-03-01T03:13:31;52.0;49.0;
55686;PMS5003;41911;52.362;4.978;2023-03-01T03:14:02;49.0;47.0;
55686;PMS5003;41911;52.362;4.978;2023-03-01T03:14:33;51.0;46.0;
55686;PMS5003;41911;52.362;4.978;2023-03-01T03:15:04;52.0;49.0;
55686;PMS5003;41911;52.362;4.978;2023-03-01T03:15:37;54.0;52.0;
55686;PMS5003;41911;52.362;4.978;2023-03-01T03:16:08;46.0;45.0;
55686;PMS5003;41911;52.362;4.978;2023-03-01T03:16:40;57.0;52.0;
55686;PMS5003;41911;52.362;4.978;2023-03-01T03:17:11;48.0;46.0;
55686;PMS5003;41911;52.362;4.978;2023-03-01T03:17:43;49.0;48.0;
55686;PMS5003;41911;52.362;4.978;2023-03-01T03:18:15;48.0;46.0;
55686;PMS5003;41911;52.362;4.978;2023-03-01T03:18:47;48.0;47.0;
55686;PMS5003;41911;52.362;4.978;2023-03-01T03:19:18;48.0;47.0;
55686;PMS5003;41911;52.362;4.978;2023-03-01T03:19:50;50.0;48.0;
55686;PMS5003;41911;52.362;4.978;2023-03-01T03:20:21;48.0;47.0;
55686;PMS5003;41911;52.362;4.978;2023-03-01T03:20:55;49.0;47.0;
55686;PMS5003;41911;52.362;4.978;2023-03-01T03:21:26;44.0;44.0;
55686;PMS5003;41911;52.362;4.978;2023-03-01T03:21:57;46.0;45.0;
55686;PMS5003;41911;52.362;4.978;2023-03-01T03:22:28;41.0;41.0;
55686;PMS5003;41911;52.362;4.978;2023-03-01T03:22:59;52.0;51.0;
55686;PMS5003;41911;52.362;4.978;2023-03-01T03:23:30;47.0;46.0;
55686;PMS5003;41911;52.362;4.978;2023-03-01T03:24:01;49.0;48.0;
55686;PMS5003;41911;52.362;4.978;2023-03-01T03:24:32;44.0;43.0;
55686;PMS5003;41911;52.362;4.978;2023-03-01T03:25:04;46.0;46.0;
55686;PMS5003;41911;52.362;4.978;2023-03-01T03:25:35;42.0;42.0;
55686;PMS5003;41911;52.362;4.978;2023-03-01T03:26:06;49.0;47.0;